Time;durP1;ratioP1;P1;durP2;ratioP2;P2;SDS_P1;SDS_P2;PMS_P1;PMS_P2;Temp;Humidity;BMP_temperature;BMP_pressure;BME280_temperature;BME280_humidity;BME280_pressure;Samples;Min_cycle;Max_cycle;Signal;HPM_P1;HPM_P2
2024/04/21 00:02:23;;;;;;;0.70;0.70;;;4.50;99.90;;;;;;5415793;26;20257;-62
2024/04/21 00:04:49;;;;;;;1.30;1.20;;;4.60;99.90;;;;;;5415943;26;20228;-62
2024/04/21 00:07:14;;;;;;;0.60;0.60;;;4.50;99.90;;;;;;5415949;26;20258;-62
2024/04/21 00:09:40;;;;;;;0.80;0.80;;;4.60;99.90;;;;;;5415690;26;20275;-62
2024/04/21 00:12:06;;;;;;;1.17;1.13;;;4.60;99.90;;;;;;5415472;26;20216;-62
2024/04/21 00:14:31;;;;;;;1.43;1.33;;;4.60;99.90;;;;;;5415698;26;20333;-61
2024/04/21 00:16:57;;;;;;;1.00;0.80;;;4.70;99.90;;;;;;5415859;26;20857;-62
2024/04/21 00:19:23;;;;;;;0.73;0.73;;;4.70;99.90;;;;;;5415556;26;20736;-62
2024/04/21 00:21:48;;;;;;;0.80;0.80;;;4.70;99.90;;;;;;5415491;26;20211;-63
2024/04/21 00:24:14;;;;;;;0.70;0.70;;;4.60;99.90;;;;;;5415627;26;20343;-62
2024/04/21 00:26:40;;;;;;;1.00;0.90;;;4.60;99.90;;;;;;5415411;26;20294;-62
2024/04/21 00:29:05;;;;;;;0.93;0.93;;;4.70;99.90;;;;;;5415609;26;20215;-62
2024/04/21 00:31:31;;;;;;;1.00;1.00;;;4.70;99.90;;;;;;5415330;26;20223;-62
2024/04/21 00:33:56;;;;;;;1.37;1.27;;;4.70;99.90;;;;;;5415487;26;20559;-62
2024/04/21 00:36:22;;;;;;;1.03;1.03;;;4.70;99.90;;;;;;5415459;26;20844;-62
2024/04/21 00:38:48;;;;;;;1.27;1.17;;;4.70;99.90;;;;;;5414770;26;20304;-61
2024/04/21 00:41:13;;;;;;;0.80;0.60;;;4.70;99.90;;;;;;5414965;26;20219;-62
2024/04/21 00:43:39;;;;;;;0.80;0.80;;;4.80;99.90;;;;;;5415155;26;20291;-62
2024/04/21 00:46:06;;;;;;;1.10;1.00;;;4.80;99.90;;;;;;5415237;26;20317;-62
2024/04/21 00:48:33;;;;;;;1.13;1.08;;;4.80;99.90;;;;;;5415209;26;20231;-62
2024/04/21 00:51:01;;;;;;;1.10;1.00;;;4.90;99.90;;;;;;5383631;26;20709;-61
2024/04/21 00:53:27;;;;;;;1.27;1.08;;;5.00;99.90;;;;;;5415097;26;20223;-62
2024/04/21 00:55:55;;;;;;;1.10;0.90;;;4.90;99.90;;;;;;5415010;26;20283;-62
2024/04/21 00:58:22;;;;;;;1.10;1.05;;;4.90;99.90;;;;;;5415106;26;20319;-62
2024/04/21 01:00:48;;;;;;;0.77;0.75;;;5.00;99.90;;;;;;5414672;26;20224;-62
2024/04/21 01:03:14;;;;;;;2.78;1.20;;;4.80;99.90;;;;;;5415199;26;20228;-62
2024/04/21 01:05:39;;;;;;;1.37;1.27;;;4.70;99.90;;;;;;5415143;26;20710;-62
2024/04/21 01:08:08;;;;;;;0.97;0.80;;;4.70;99.90;;;;;;5414862;26;20262;-62
2024/04/21 01:10:33;;;;;;;1.67;0.88;;;4.60;99.90;;;;;;5414438;26;20217;-62
2024/04/21 01:12:59;;;;;;;0.70;0.70;;;4.60;99.90;;;;;;5414847;26;20250;-62
2024/04/21 01:15:25;;;;;;;0.73;0.73;;;4.60;99.90;;;;;;5414793;26;20393;-62
2024/04/21 01:17:50;;;;;;;1.80;1.70;;;4.60;99.90;;;;;;5414774;26;20262;-61
2024/04/21 01:20:16;;;;;;;1.10;1.10;;;4.50;99.90;;;;;;5414365;26;20223;-62
2024/04/21 01:22:48;;;;;;;2.23;2.07;;;4.70;99.90;;;;;;5414558;26;20219;-62
2024/04/21 01:25:15;;;;;;;1.48;1.15;;;4.70;99.90;;;;;;5414492;26;20308;-62
2024/04/21 01:27:41;;;;;;;1.35;1.25;;;4.60;99.90;;;;;;5414527;26;20304;-61
2024/04/21 01:30:07;;;;;;;1.00;1.00;;;4.70;99.90;;;;;;5414439;26;20711;-61
2024/04/21 01:32:33;;;;;;;2.03;1.80;;;4.70;99.90;;;;;;5414605;26;20500;-61
2024/04/21 01:34:59;;;;;;;1.20;1.20;;;4.60;99.90;;;;;;5414692;26;20227;-62
2024/04/21 01:37:24;;;;;;;2.40;1.30;;;4.70;99.90;;;;;;5414225;26;20224;-62
2024/04/21 01:39:50;;;;;;;1.40;1.30;;;4.60;99.90;;;;;;5414113;26;20231;-62
2024/04/21 01:42:16;;;;;;;1.70;1.60;;;4.50;99.90;;;;;;5414042;26;20701;-62
2024/04/21 01:44:42;;;;;;;1.23;0.97;;;4.50;99.90;;;;;;5414314;26;20235;-62
2024/04/21 01:47:08;;;;;;;1.25;1.15;;;4.60;99.90;;;;;;5414232;26;20257;-62
2024/04/21 01:49:34;;;;;;;1.30;1.20;;;4.50;99.90;;;;;;5414026;26;20301;-62
2024/04/21 01:51:59;;;;;;;1.47;1.37;;;4.40;99.90;;;;;;5416466;26;20449;-62
2024/04/21 01:54:25;;;;;;;1.80;1.40;;;4.30;99.90;;;;;;5417695;26;20822;-62
2024/04/21 01:56:51;;;;;;;1.63;1.53;;;4.20;99.90;;;;;;5417773;26;20258;-62
2024/04/21 01:59:16;;;;;;;2.13;1.60;;;4.30;99.90;;;;;;5417610;26;20220;-63
2024/04/21 02:01:42;;;;;;;2.30;2.10;;;4.30;99.90;;;;;;5417505;26;20319;-62
2024/04/21 02:04:07;;;;;;;2.37;2.17;;;4.40;99.90;;;;;;5417526;26;20714;-62
2024/04/21 02:06:35;;;;;;;2.40;2.30;;;4.50;99.90;;;;;;5417542;26;20262;-62
2024/04/21 02:09:01;;;;;;;3.47;3.17;;;4.60;99.90;;;;;;5417426;26;20220;-62
2024/04/21 02:11:26;;;;;;;3.30;2.80;;;4.70;99.90;;;;;;5417372;26;20689;-62
2024/04/21 02:13:52;;;;;;;2.63;2.43;;;4.70;99.90;;;;;;5417488;26;20576;-62
2024/04/21 02:16:18;;;;;;;2.67;2.17;;;4.70;99.90;;;;;;5417642;26;20255;-61
2024/04/21 02:18:43;;;;;;;1.83;1.73;;;4.60;99.90;;;;;;5417494;26;20605;-61
2024/04/21 02:21:09;;;;;;;2.57;2.37;;;4.50;99.90;;;;;;5417039;26;20279;-62
2024/04/21 02:23:34;;;;;;;2.17;2.07;;;4.40;99.90;;;;;;5417144;26;20227;-62
2024/04/21 02:26:01;;;;;;;2.03;1.77;;;4.40;99.90;;;;;;5417340;26;20786;-62
2024/04/21 02:28:27;;;;;;;2.00;1.90;;;4.50;99.90;;;;;;5417481;26;20223;-62
2024/04/21 02:30:54;;;;;;;2.15;1.95;;;4.60;99.90;;;;;;5416902;26;20268;-62
2024/04/21 02:33:21;;;;;;;3.33;2.60;;;4.60;99.90;;;;;;5417205;26;20227;-61
2024/04/21 02:35:47;;;;;;;1.63;1.52;;;4.50;99.90;;;;;;5417140;26;20767;-61
2024/04/21 02:38:12;;;;;;;2.47;2.27;;;4.40;99.90;;;;;;5417013;26;20219;-62
2024/04/21 02:40:38;;;;;;;3.17;2.87;;;4.40;99.90;;;;;;5416859;26;20218;-62
2024/04/21 02:43:04;;;;;;;7.33;2.43;;;4.50;99.90;;;;;;5417009;26;20279;-62
2024/04/21 02:45:30;;;;;;;2.75;2.10;;;4.50;99.90;;;;;;5417109;26;20555;-62
2024/04/21 02:47:56;;;;;;;3.00;2.70;;;4.50;99.90;;;;;;5416967;26;20708;-62
2024/04/21 02:50:22;;;;;;;4.13;2.00;;;4.40;99.90;;;;;;5416536;26;20434;-62
2024/04/21 02:52:48;;;;;;;2.40;2.23;;;4.40;99.90;;;;;;5414823;26;20629;-62
2024/04/21 02:55:14;;;;;;;4.83;2.47;;;4.40;99.90;;;;;;5416964;26;20592;-62
2024/04/21 02:57:39;;;;;;;2.38;1.65;;;4.40;99.90;;;;;;5416864;26;20262;-62
2024/04/21 03:00:06;;;;;;;2.00;1.80;;;4.40;99.90;;;;;;5416827;26;20208;-62
2024/04/21 03:02:31;;;;;;;2.13;1.85;;;4.50;99.90;;;;;;5416534;26;20254;-62
2024/04/21 03:04:57;;;;;;;2.90;2.23;;;4.50;99.90;;;;;;5416960;26;20224;-62
2024/04/21 03:07:23;;;;;;;2.33;2.10;;;4.50;99.90;;;;;;5416608;26;20251;-61
2024/04/21 03:09:48;;;;;;;4.77;3.20;;;4.60;99.90;;;;;;5416623;26;20212;-61
2024/04/21 03:12:14;;;;;;;3.03;2.67;;;4.50;99.90;;;;;;5416534;26;20556;-62
2024/04/21 03:14:39;;;;;;;3.10;2.57;;;4.50;99.90;;;;;;5416682;26;20244;-62
2024/04/21 03:17:06;;;;;;;9.63;4.00;;;4.40;99.90;;;;;;5416708;26;20262;-62
2024/04/21 03:19:32;;;;;;;4.93;3.70;;;4.30;99.90;;;;;;5416458;26;20228;-62
2024/04/21 03:21:59;;;;;;;8.33;3.33;;;4.40;99.90;;;;;;5416242;26;20320;-63
2024/04/21 03:24:24;;;;;;;3.70;3.30;;;4.40;99.90;;;;;;5416475;26;20231;-62
2024/04/21 03:26:50;;;;;;;3.33;3.00;;;4.30;99.90;;;;;;5416605;26;20250;-62
2024/04/21 03:29:15;;;;;;;2.97;2.67;;;4.50;99.90;;;;;;5416353;26;20219;-62
2024/04/21 03:31:42;;;;;;;3.27;2.97;;;4.60;99.90;;;;;;5416379;26;20251;-62
2024/04/21 03:34:08;;;;;;;3.40;3.10;;;4.60;99.90;;;;;;5446150;21;20258;-60
2024/04/21 03:36:34;;;;;;;3.33;2.50;;;4.60;99.90;;;;;;5452021;26;20257;-61
2024/04/21 03:38:59;;;;;;;3.97;3.30;;;4.60;99.90;;;;;;5420729;26;20693;-61
2024/04/21 03:41:25;;;;;;;3.70;3.37;;;4.60;99.90;;;;;;5451885;26;20758;-61
2024/04/21 03:43:51;;;;;;;4.10;3.00;;;4.50;99.90;;;;;;5452078;26;20283;-61
2024/04/21 03:46:16;;;;;;;3.93;2.30;;;4.40;99.90;;;;;;5420496;26;20332;-61
2024/04/21 03:48:42;;;;;;;2.73;2.43;;;4.20;99.90;;;;;;5452222;26;20758;-61
2024/04/21 03:51:07;;;;;;;3.63;3.33;;;4.20;99.90;;;;;;5451661;26;20754;-61
2024/04/21 03:53:33;;;;;;;2.77;2.57;;;4.10;99.90;;;;;;5452059;26;20587;-61
2024/04/21 03:55:59;;;;;;;3.10;2.70;;;4.20;99.90;;;;;;5451935;26;20632;-61
2024/04/21 03:58:24;;;;;;;5.00;2.80;;;4.30;99.90;;;;;;5452140;26;20210;-61
2024/04/21 04:00:50;;;;;;;4.83;2.83;;;4.40;99.90;;;;;;5452020;26;20709;-61
2024/04/21 04:03:16;;;;;;;5.00;3.77;;;4.50;99.90;;;;;;5451872;26;20218;-61
2024/04/21 04:05:46;;;;;;;3.50;3.20;;;4.60;99.90;;;;;;5451677;26;20262;-61
2024/04/21 04:08:12;;;;;;;3.22;2.85;;;4.50;99.90;;;;;;5451880;26;20815;-61
2024/04/21 04:10:39;;;;;;;3.38;3.03;;;4.30;99.90;;;;;;5451479;26;20265;-61
2024/04/21 04:13:05;;;;;;;4.35;3.92;;;4.40;99.90;;;;;;5451682;26;20227;-61
2024/04/21 04:15:31;;;;;;;3.23;2.63;;;4.50;99.90;;;;;;5451362;26;20659;-60
2024/04/21 04:17:56;;;;;;;3.70;3.40;;;4.50;99.90;;;;;;5451612;26;20235;-61
2024/04/21 04:20:22;;;;;;;2.83;2.63;;;4.40;99.90;;;;;;5451353;26;20274;-60
2024/04/21 04:22:48;;;;;;;4.83;2.80;;;4.30;99.90;;;;;;5451725;26;20245;-61
2024/04/21 04:25:13;;;;;;;3.23;2.93;;;4.30;99.90;;;;;;5451709;26;20650;-60
2024/04/21 04:27:39;;;;;;;2.63;2.43;;;4.50;99.90;;;;;;5451513;26;20256;-60
2024/04/21 04:30:05;;;;;;;5.73;3.43;;;4.60;99.90;;;;;;5451448;26;20257;-61
2024/04/21 04:32:31;;;;;;;3.90;2.95;;;4.60;99.90;;;;;;5451340;26;20215;-61
2024/04/21 04:34:56;;;;;;;5.43;2.27;;;4.70;99.90;;;;;;5451477;26;20261;-61
2024/04/21 04:37:22;;;;;;;3.83;3.50;;;4.50;99.90;;;;;;5451643;26;20230;-61
2024/04/21 04:39:48;;;;;;;5.20;3.00;;;4.20;99.90;;;;;;5451277;26;20226;-61
2024/04/21 04:42:14;;;;;;;3.37;3.07;;;4.10;99.90;;;;;;5451062;26;20571;-61
2024/04/21 04:44:39;;;;;;;2.47;2.30;;;4.10;99.90;;;;;;5451251;26;20808;-61
2024/04/21 04:47:05;;;;;;;3.90;2.63;;;4.10;99.90;;;;;;5451214;26;20837;-61
2024/04/21 04:49:31;;;;;;;3.67;3.33;;;4.10;99.90;;;;;;5450901;26;20222;-62
2024/04/21 04:51:57;;;;;;;3.00;2.50;;;4.10;99.90;;;;;;5450978;26;20553;-61
2024/04/21 04:54:23;;;;;;;2.55;2.35;;;4.10;99.90;;;;;;5419358;26;20468;-61
2024/04/21 04:56:52;;;;;;;3.70;3.17;;;4.20;99.90;;;;;;5451080;26;20708;-61
2024/04/21 04:59:18;;;;;;;4.75;2.67;;;4.20;99.90;;;;;;5450723;26;20444;-61
2024/04/21 05:01:43;;;;;;;3.33;2.47;;;4.30;99.90;;;;;;5450777;26;20261;-61
2024/04/21 05:04:09;;;;;;;4.70;3.13;;;4.40;99.90;;;;;;5450775;26;20287;-61
2024/04/21 05:06:36;;;;;;;5.13;3.30;;;4.30;99.90;;;;;;5451157;26;20222;-61
2024/04/21 05:09:02;;;;;;;4.18;3.08;;;4.30;99.90;;;;;;5450958;26;20550;-61
2024/04/21 05:11:27;;;;;;;6.57;2.58;;;4.30;99.90;;;;;;5450825;26;20332;-61
2024/04/21 05:13:53;;;;;;;4.27;2.67;;;4.40;99.80;;;;;;5450858;26;20228;-61
2024/04/21 05:16:19;;;;;;;3.10;2.23;;;4.30;99.90;;;;;;5450768;26;20700;-61
2024/04/21 05:18:44;;;;;;;5.83;3.40;;;4.30;99.90;;;;;;5451212;26;20257;-61
2024/04/21 05:21:10;;;;;;;3.57;2.67;;;4.40;99.90;;;;;;5450592;26;20215;-61
2024/04/21 05:23:37;;;;;;;3.87;3.50;;;4.20;99.90;;;;;;5450656;26;20595;-61
2024/04/21 05:26:03;;;;;;;7.60;3.63;;;4.00;99.90;;;;;;5451559;26;20340;-61
2024/04/21 05:28:28;;;;;;;3.10;2.80;;;4.00;99.90;;;;;;5454071;26;20230;-61
2024/04/21 05:30:54;;;;;;;5.90;2.63;;;4.00;99.90;;;;;;5453631;26;20219;-61
2024/04/21 05:33:20;;;;;;;4.17;3.00;;;4.00;99.90;;;;;;5453982;26;20218;-61
2024/04/21 05:35:45;;;;;;;4.20;3.10;;;4.00;99.90;;;;;;5454241;26;20813;-61
2024/04/21 05:38:11;;;;;;;3.50;3.20;;;4.10;99.90;;;;;;5454350;26;20257;-61
2024/04/21 05:40:37;;;;;;;5.03;4.27;;;4.30;99.90;;;;;;5453548;26;20214;-62
2024/04/21 05:43:02;;;;;;;3.63;2.70;;;4.40;99.90;;;;;;5454180;26;20571;-61
2024/04/21 05:45:28;;;;;;;3.60;3.30;;;4.40;99.90;;;;;;5422063;26;20238;-61
2024/04/21 05:47:54;;;;;;;3.97;3.57;;;4.50;99.90;;;;;;5453803;26;20319;-61
2024/04/21 05:50:20;;;;;;;4.20;2.95;;;4.60;99.90;;;;;;5453536;26;20327;-61
2024/04/21 05:52:46;;;;;;;3.73;3.10;;;4.60;99.70;;;;;;5453841;26;20222;-62
2024/04/21 05:55:11;;;;;;;2.90;2.70;;;4.60;99.60;;;;;;5453769;26;20226;-62
2024/04/21 05:57:37;;;;;;;3.00;2.30;;;4.70;99.50;;;;;;5453609;26;20701;-62
2024/04/21 06:00:03;;;;;;;2.30;2.17;;;4.70;99.40;;;;;;5453517;26;20696;-62
2024/04/21 06:02:28;;;;;;;2.97;2.75;;;4.60;99.50;;;;;;5453272;26;20226;-62
2024/04/21 06:04:54;;;;;;;2.43;2.33;;;4.50;99.60;;;;;;5453698;26;20234;-62
2024/04/21 06:07:20;;;;;;;2.80;2.27;;;4.50;99.90;;;;;;5453623;26;20806;-62
2024/04/21 06:09:46;;;;;;;3.23;2.57;;;4.60;99.70;;;;;;5453450;26;20319;-62
2024/04/21 06:12:12;;;;;;;3.25;2.95;;;4.50;99.40;;;;;;5453355;26;20222;-62
2024/04/21 06:14:38;;;;;;;3.13;2.58;;;4.50;99.60;;;;;;5453452;26;20757;-62
2024/04/21 06:17:03;;;;;;;2.47;2.33;;;4.50;99.50;;;;;;5453608;26;20257;-62
2024/04/21 06:19:29;;;;;;;6.00;3.80;;;4.60;99.60;;;;;;5453324;26;20210;-62
2024/04/21 06:21:55;;;;;;;4.70;2.30;;;4.60;99.60;;;;;;5421608;26;20793;-61
2024/04/21 06:24:20;;;;;;;3.37;3.07;;;4.60;99.60;;;;;;5453325;26;20274;-61
2024/04/21 06:26:46;;;;;;;4.47;3.07;;;4.60;99.50;;;;;;5421739;26;20249;-62
2024/04/21 06:29:12;;;;;;;2.50;2.30;;;4.60;99.60;;;;;;5453179;26;20260;-61
2024/04/21 06:31:40;;;;;;;5.25;4.00;;;4.70;99.60;;;;;;5453074;26;20210;-61
2024/04/21 06:34:06;;;;;;;2.65;2.45;;;4.70;99.50;;;;;;5453000;26;20282;-61
2024/04/21 06:36:32;;;;;;;2.63;2.43;;;4.70;99.50;;;;;;5452622;26;20545;-61
2024/04/21 06:38:57;;;;;;;1.73;1.63;;;4.50;99.50;;;;;;5453197;26;20214;-61
2024/04/21 06:41:23;;;;;;;2.83;2.30;;;4.50;99.70;;;;;;5452631;26;20261;-61
2024/04/21 06:43:48;;;;;;;1.43;1.33;;;4.50;99.80;;;;;;5452964;26;20253;-61
2024/04/21 06:46:14;;;;;;;1.77;1.67;;;4.50;99.80;;;;;;5453065;26;20261;-61
2024/04/21 06:48:40;;;;;;;1.33;1.23;;;4.50;99.70;;;;;;5452929;26;20243;-61
2024/04/21 06:51:05;;;;;;;1.80;1.70;;;4.40;99.90;;;;;;5452709;26;20573;-61
2024/04/21 06:53:31;;;;;;;1.63;1.50;;;4.30;99.90;;;;;;5452999;26;20270;-61
2024/04/21 06:55:57;;;;;;;1.23;1.13;;;4.30;99.90;;;;;;5452846;26;20732;-61
2024/04/21 06:58:23;;;;;;;1.25;1.00;;;4.30;99.90;;;;;;5452933;26;20614;-61
2024/04/21 07:00:50;;;;;;;1.50;1.40;;;4.30;99.90;;;;;;5452557;26;20554;-61
2024/04/21 07:03:16;;;;;;;1.55;1.45;;;4.60;99.90;;;;;;5452714;26;20222;-61
2024/04/21 07:05:42;;;;;;;1.13;1.07;;;4.70;99.90;;;;;;5452670;26;20258;-62
2024/04/21 07:08:07;;;;;;;1.30;1.20;;;4.70;99.90;;;;;;5452725;26;20430;-61
2024/04/21 07:10:33;;;;;;;1.70;1.60;;;4.70;99.90;;;;;;5452386;26;20694;-61
2024/04/21 07:12:59;;;;;;;1.03;1.00;;;4.60;99.90;;;;;;5452858;26;20274;-61
2024/04/21 07:15:24;;;;;;;1.70;1.13;;;4.60;99.80;;;;;;5453009;26;20605;-61
2024/04/21 07:17:50;;;;;;;0.83;0.83;;;4.70;99.80;;;;;;5452578;26;20253;-61
2024/04/21 07:20:18;;;;;;;3.80;2.87;;;4.70;99.70;;;;;;5452151;26;20496;-61
2024/04/21 07:22:44;;;;;;;2.63;1.67;;;4.60;99.60;;;;;;5452506;26;20558;-61
2024/04/21 07:25:11;;;;;;;1.60;1.50;;;4.60;99.80;;;;;;5452298;26;20626;-61
2024/04/21 07:27:37;;;;;;;2.08;1.83;;;4.60;99.80;;;;;;5452429;26;20256;-62
2024/04/21 07:30:03;;;;;;;2.43;2.23;;;4.70;99.80;;;;;;5452689;26;20218;-61
2024/04/21 07:32:28;;;;;;;4.30;1.45;;;4.80;99.80;;;;;;5452610;26;20638;-62
2024/04/21 07:34:54;;;;;;;1.07;1.07;;;4.80;99.70;;;;;;5452454;26;20230;-62
2024/04/21 07:37:20;;;;;;;1.27;0.97;;;4.80;99.60;;;;;;5420692;26;20259;-61
2024/04/21 07:39:46;;;;;;;1.00;0.90;;;4.80;99.60;;;;;;5452018;26;20324;-61
2024/04/21 07:42:11;;;;;;;1.07;0.80;;;4.90;99.80;;;;;;5452215;26;20223;-61
2024/04/21 07:44:38;;;;;;;0.50;0.50;;;4.90;99.20;;;;;;5452203;26;20638;-61
2024/04/21 07:47:04;;;;;;;0.40;0.40;;;4.80;99.20;;;;;;5452098;26;20319;-61
2024/04/21 07:49:30;;;;;;;0.70;0.52;;;4.80;98.70;;;;;;5450645;26;20211;-61
2024/04/21 07:51:55;;;;;;;0.50;0.50;;;4.70;98.30;;;;;;5452036;26;20211;-61
2024/04/21 07:54:21;;;;;;;0.30;0.30;;;4.50;97.40;;;;;;5451977;26;20226;-61
2024/04/21 07:56:47;;;;;;;0.60;0.60;;;4.40;97.00;;;;;;5420267;26;20226;-61
2024/04/21 07:59:12;;;;;;;0.40;0.40;;;4.40;97.80;;;;;;5452050;26;20252;-61
2024/04/21 08:01:38;;;;;;;0.40;0.40;;;4.30;97.20;;;;;;5451704;26;20697;-60
2024/04/21 08:04:03;;;;;;;1.70;0.50;;;4.40;97.10;;;;;;5451828;26;20276;-61
2024/04/21 08:06:29;;;;;;;0.50;0.50;;;4.40;97.00;;;;;;5451838;26;20754;-61
2024/04/21 08:08:55;;;;;;;0.40;0.40;;;4.60;97.30;;;;;;5451825;26;20218;-61
2024/04/21 08:11:22;;;;;;;0.60;0.60;;;4.70;96.40;;;;;;5451448;26;20226;-61
2024/04/21 08:13:49;;;;;;;0.80;0.80;;;5.00;96.50;;;;;;5420016;26;20255;-61
2024/04/21 08:16:14;;;;;;;1.15;0.60;;;5.50;96.30;;;;;;5451691;26;20216;-61
2024/04/21 08:18:40;;;;;;;1.23;1.13;;;5.90;95.50;;;;;;5451911;26;20208;-61
2024/04/21 08:21:06;;;;;;;0.70;0.70;;;6.40;94.00;;;;;;5419685;26;20497;-61
2024/04/21 08:23:31;;;;;;;0.90;0.70;;;6.50;92.20;;;;;;5451570;26;20219;-61
2024/04/21 08:25:59;;;;;;;0.50;0.50;;;6.40;92.40;;;;;;5451493;26;20224;-61
2024/04/21 08:28:26;;;;;;;0.65;0.63;;;6.40;92.10;;;;;;5451620;26;20631;-61
2024/04/21 08:30:52;;;;;;;0.73;0.50;;;6.20;91.80;;;;;;5451003;26;20267;-61
2024/04/21 08:33:17;;;;;;;0.70;0.70;;;6.10;92.50;;;;;;5451568;26;20212;-61
2024/04/21 08:35:54;;;;;;;0.40;0.40;;;5.90;92.60;;;;;;5451351;26;20820;-61
2024/04/21 08:38:20;;;;;;;0.47;0.47;;;5.80;92.90;;;;;;5451456;26;20206;-61
2024/04/21 08:40:48;;;;;;;0.43;0.43;;;5.40;92.50;;;;;;5451086;26;20210;-61
2024/04/21 08:43:23;;;;;;;0.60;0.50;;;5.30;93.60;;;;;;5451225;26;20274;-61
2024/04/21 08:45:51;;;;;;;0.40;0.40;;;5.50;93.70;;;;;;5451370;26;20284;-61
2024/04/21 08:48:18;;;;;;;0.40;0.40;;;5.60;93.30;;;;;;5419662;26;20774;-61
2024/04/21 08:50:45;;;;;;;0.45;0.45;;;5.70;93.20;;;;;;5451196;26;20232;-61
2024/04/21 08:53:11;;;;;;;0.40;0.40;;;5.90;92.50;;;;;;5451150;26;20743;-61
2024/04/21 08:55:38;;;;;;;3.23;0.40;;;6.00;92.00;;;;;;5451159;26;20230;-61
2024/04/21 08:58:07;;;;;;;0.73;0.50;;;5.90;91.40;;;;;;5451077;26;20249;-61
2024/04/21 09:00:33;;;;;;;0.68;0.68;;;5.80;91.30;;;;;;5452360;26;20222;-62
2024/04/21 09:03:00;;;;;;;0.80;0.80;;;5.80;91.50;;;;;;5454472;26;20259;-61
2024/04/21 09:05:30;;;;;;;0.50;0.50;;;5.80;91.60;;;;;;5454298;26;20996;-61
2024/04/21 09:07:58;;;;;;;1.15;0.45;;;6.00;91.60;;;;;;5454592;26;20221;-61
2024/04/21 09:10:24;;;;;;;0.40;0.40;;;6.20;91.40;;;;;;5453985;26;20261;-61
2024/04/21 09:12:50;;;;;;;0.50;0.50;;;6.40;91.00;;;;;;5454257;26;20617;-62
2024/04/21 09:15:16;;;;;;;1.20;0.60;;;6.90;90.60;;;;;;5454244;26;20227;-61
2024/04/21 09:17:42;;;;;;;0.40;0.40;;;7.40;90.00;;;;;;5454068;26;20850;-62
2024/04/21 09:20:09;;;;;;;0.40;0.40;;;7.80;87.70;;;;;;5454031;26;20240;-61
2024/04/21 09:22:35;;;;;;;0.40;0.40;;;8.00;87.30;;;;;;5453921;26;20443;-62
2024/04/21 09:25:01;;;;;;;0.50;0.40;;;8.10;85.00;;;;;;5454122;26;20290;-61
2024/04/21 09:27:27;;;;;;;0.40;0.40;;;8.00;84.10;;;;;;5454144;26;20257;-62
2024/04/21 09:29:56;;;;;;;0.40;0.40;;;8.10;85.80;;;;;;5453877;26;20277;-62
2024/04/21 09:32:22;;;;;;;0.40;0.40;;;8.50;84.10;;;;;;5453808;26;20225;-61
2024/04/21 09:34:48;;;;;;;0.40;0.40;;;8.80;83.20;;;;;;5464401;21;20360;-63
2024/04/21 09:37:17;;;;;;;0.50;0.50;;;9.00;84.60;;;;;;5418030;26;20212;-62
2024/04/21 09:39:47;;;;;;;0.40;0.40;;;9.20;83.10;;;;;;5386600;26;20246;-62
2024/04/21 09:42:15;;;;;;;0.50;0.50;;;8.90;82.50;;;;;;5417813;26;20220;-63
2024/04/21 09:44:43;;;;;;;0.40;0.40;;;8.40;82.40;;;;;;5417851;26;20224;-63
2024/04/21 09:47:10;;;;;;;0.40;0.40;;;8.40;83.70;;;;;;5417776;26;20223;-63
2024/04/21 09:49:36;;;;;;;0.40;0.40;;;8.40;83.10;;;;;;5417635;26;20279;-62
2024/04/21 09:52:03;;;;;;;0.40;0.40;;;8.70;82.30;;;;;;5417670;26;20610;-63
2024/04/21 09:54:29;;;;;;;0.60;0.60;;;9.00;81.80;;;;;;5417874;26;20266;-63
2024/04/21 09:57:04;;;;;;;0.60;0.60;;;9.20;81.40;;;;;;5417699;26;20220;-63
2024/04/21 09:59:31;;;;;;;0.70;0.70;;;9.30;79.50;;;;;;5417443;26;20497;-63
2024/04/21 10:01:59;;;;;;;0.40;0.40;;;9.70;81.00;;;;;;5417441;26;20227;-63
2024/04/21 10:04:29;;;;;;;0.40;0.40;;;10.80;77.20;;;;;;5417659;26;20828;-63
2024/04/21 10:06:56;;;;;;;0.57;0.50;;;12.60;73.70;;;;;;5417659;26;20445;-63
2024/04/21 10:09:22;;;;;;;0.60;0.60;;;14.20;66.30;;;;;;5417610;26;20521;-63
2024/04/21 10:11:49;;;;;;;0.80;0.60;;;15.60;60.40;;;;;;5416707;26;20445;-63
2024/04/21 10:14:16;;;;;;;0.40;0.40;;;16.40;54.20;;;;;;5417724;26;20618;-64
2024/04/21 10:16:42;;;;;;;2.30;0.60;;;17.30;52.70;;;;;;5417509;26;20449;-62
2024/04/21 10:19:08;;;;;;;5.20;0.90;;;18.10;50.30;;;;;;5417472;26;20454;-63
2024/04/21 10:21:37;;;;;;;0.50;0.50;;;18.40;47.00;;;;;;5417236;26;20501;-63
2024/04/21 10:24:03;;;;;;;0.70;0.70;;;18.00;47.80;;;;;;5417419;26;20558;-63
2024/04/21 10:26:32;;;;;;;2.30;1.43;;;18.30;46.50;;;;;;5417299;26;20508;-63
2024/04/21 10:29:10;;;;;;;0.50;0.50;;;18.10;44.80;;;;;;5417444;26;20445;-63
2024/04/21 10:31:36;;;;;;;0.70;0.70;;;18.00;45.60;;;;;;5417030;26;20519;-63
2024/04/21 10:34:06;;;;;;;0.53;0.53;;;17.70;43.70;;;;;;5417461;26;20456;-63
2024/04/21 10:36:45;;;;;;;0.73;0.70;;;17.60;44.10;;;;;;5381738;26;20227;-63
2024/04/21 10:39:11;;;;;;;0.80;0.53;;;17.20;45.30;;;;;;5381448;26;20569;-63
2024/04/21 10:41:45;;;;;;;1.43;0.93;;;17.10;46.20;;;;;;5381453;26;20462;-63
2024/04/21 10:44:14;;;;;;;3.30;0.97;;;16.10;44.40;;;;;;5381775;26;20220;-63
2024/04/21 10:46:39;;;;;;;2.87;0.93;;;15.00;46.20;;;;;;5381793;26;20443;-63
2024/04/21 10:49:05;;;;;;;1.03;0.80;;;13.50;45.90;;;;;;5381597;26;20438;-63
2024/04/21 10:51:32;;;;;;;1.40;0.73;;;12.50;50.50;;;;;;5381441;26;20745;-63
2024/04/21 10:53:58;;;;;;;0.60;0.60;;;11.70;51.40;;;;;;5381560;26;20447;-62
2024/04/21 10:56:24;;;;;;;0.93;0.93;;;11.20;53.10;;;;;;5381375;26;20501;-63
2024/04/21 10:58:50;;;;;;;0.53;0.53;;;10.80;55.70;;;;;;5381435;26;20258;-63
2024/04/21 11:01:15;;;;;;;1.33;0.80;;;10.80;57.00;;;;;;5381028;26;20566;-62
2024/04/21 11:03:41;;;;;;;0.80;0.80;;;10.80;55.60;;;;;;5381330;26;20216;-63
2024/04/21 11:06:08;;;;;;;1.15;0.73;;;10.60;56.00;;;;;;5381146;26;20229;-63
2024/04/21 11:08:34;;;;;;;0.75;0.65;;;10.70;56.40;;;;;;5381406;26;20221;-63
2024/04/21 11:11:01;;;;;;;2.05;0.80;;;10.60;55.30;;;;;;5380939;26;20213;-63
2024/04/21 11:13:27;;;;;;;0.97;0.77;;;10.50;57.70;;;;;;5381288;26;20250;-62
2024/04/21 11:15:53;;;;;;;1.30;0.97;;;10.70;57.90;;;;;;5381082;26;20458;-62
2024/04/21 11:18:18;;;;;;;0.60;0.60;;;10.80;58.10;;;;;;5350580;26;20491;-63
2024/04/21 11:20:45;;;;;;;2.67;0.80;;;10.90;57.00;;;;;;5380741;26;20251;-63
2024/04/21 11:23:14;;;;;;;0.60;0.60;;;10.90;57.00;;;;;;5381008;26;20458;-62
2024/04/21 11:25:40;;;;;;;0.60;0.60;;;10.70;56.70;;;;;;5380931;26;20534;-63
2024/04/21 11:28:10;;;;;;;0.60;0.60;;;10.10;57.60;;;;;;5380936;26;20326;-63
2024/04/21 11:30:36;;;;;;;1.23;0.50;;;9.40;59.80;;;;;;5380735;26;20679;-63
2024/04/21 11:33:02;;;;;;;0.63;0.50;;;8.50;64.60;;;;;;5381031;26;20263;-63
2024/04/21 11:35:28;;;;;;;0.60;0.40;;;7.80;67.40;;;;;;5400932;26;20270;-62
2024/04/21 11:37:54;;;;;;;2.63;0.50;;;7.00;70.00;;;;;;5416289;26;20222;-62
2024/04/21 11:40:20;;;;;;;0.70;0.70;;;6.60;73.80;;;;;;5415946;26;20727;-62
2024/04/21 11:42:46;;;;;;;0.50;0.47;;;6.30;75.30;;;;;;5416318;26;20218;-62
2024/04/21 11:45:22;;;;;;;1.80;0.50;;;6.10;77.00;;;;;;5416237;26;20280;-63
2024/04/21 11:47:53;;;;;;;0.82;0.50;;;5.90;76.90;;;;;;5416221;26;20433;-63
2024/04/21 11:50:20;;;;;;;0.47;0.47;;;6.00;79.20;;;;;;5415791;26;20255;-62
2024/04/21 11:52:45;;;;;;;0.77;0.50;;;6.10;81.10;;;;;;5416098;26;20752;-62
2024/04/21 11:55:11;;;;;;;0.70;0.50;;;6.00;80.60;;;;;;5416017;26;20232;-62
2024/04/21 11:57:37;;;;;;;0.50;0.50;;;6.20;82.10;;;;;;5416164;26;20211;-63
2024/04/21 12:00:02;;;;;;;1.83;0.73;;;6.10;80.90;;;;;;5415921;26;20259;-63
2024/04/21 12:02:29;;;;;;;0.90;0.90;;;6.20;82.90;;;;;;5415722;26;20695;-63
2024/04/21 12:04:54;;;;;;;0.82;0.70;;;6.60;84.10;;;;;;5415940;26;20513;-62
2024/04/21 12:07:22;;;;;;;0.60;0.60;;;7.10;84.60;;;;;;5415987;26;20263;-63
2024/04/21 12:09:49;;;;;;;1.02;0.85;;;7.80;82.70;;;;;;5415709;26;20747;-63
2024/04/21 12:12:14;;;;;;;2.35;1.10;;;8.40;80.60;;;;;;5415701;26;20219;-63
2024/04/21 12:14:40;;;;;;;4.00;1.10;;;8.80;77.90;;;;;;5415828;26;20266;-63
2024/04/21 12:17:06;;;;;;;1.00;0.60;;;8.90;77.70;;;;;;5415672;26;20496;-62
2024/04/21 12:19:32;;;;;;;1.37;0.70;;;9.00;74.40;;;;;;5415676;26;20208;-62
2024/04/21 12:21:59;;;;;;;2.25;0.50;;;8.90;75.60;;;;;;5415537;26;20215;-63
2024/04/21 12:24:24;;;;;;;0.93;0.65;;;8.80;73.40;;;;;;5415636;26;20243;-63
2024/04/21 12:26:50;;;;;;;0.80;0.50;;;8.90;73.70;;;;;;5415651;26;20717;-63
2024/04/21 12:29:16;;;;;;;7.03;0.70;;;8.60;71.20;;;;;;5415718;26;20308;-63
2024/04/21 12:31:41;;;;;;;1.03;0.63;;;8.50;72.70;;;;;;5415215;26;20231;-63
2024/04/21 12:34:07;;;;;;;0.57;0.57;;;8.40;72.80;;;;;;5415422;26;20215;-63
2024/04/21 12:36:32;;;;;;;0.50;0.50;;;8.10;70.60;;;;;;5415276;26;20552;-63
2024/04/21 12:38:58;;;;;;;0.60;0.60;;;7.90;73.20;;;;;;5415427;26;20413;-63
2024/04/21 12:41:24;;;;;;;0.50;0.50;;;7.90;72.20;;;;;;5415092;26;20215;-62
2024/04/21 12:43:49;;;;;;;0.60;0.60;;;8.00;71.40;;;;;;5415362;26;20257;-63
2024/04/21 12:46:15;;;;;;;0.60;0.60;;;7.80;71.10;;;;;;5415248;26;20227;-63
2024/04/21 12:48:40;;;;;;;0.60;0.60;;;7.70;72.40;;;;;;5415375;26;20254;-62
2024/04/21 12:51:06;;;;;;;0.67;0.63;;;7.80;70.70;;;;;;5414910;26;20619;-62